sensor_id;sensor_type;location;lat;lon;timestamp;pressure;altitude;pressure_sealevel;temperature;humidity
57562;BME280;43397;51.530;5.974;2022-07-23T00:00:24;101488.97;;;18.11;89.73
57562;BME280;43397;51.530;5.974;2022-07-23T00:02:50;101480.75;;;17.86;91.41
57562;BME280;43397;51.530;5.974;2022-07-23T00:05:17;101481.16;;;18.03;90.56
57562;BME280;43397;51.530;5.974;2022-07-23T00:07:43;101474.53;;;17.84;91.62
57562;BME280;43397;51.530;5.974;2022-07-23T00:10:09;101474.97;;;17.67;93.20
57562;BME280;43397;51.530;5.974;2022-07-23T00:12:35;101472.56;;;17.91;92.31
57562;BME280;43397;51.530;5.974;2022-07-23T00:15:02;101471.34;;;17.68;93.43
57562;BME280;43397;51.530;5.974;2022-07-23T00:17:28;101472.47;;;17.59;93.67
57562;BME280;43397;51.530;5.974;2022-07-23T00:19:54;101472.47;;;17.59;93.34
57562;BME280;43397;51.530;5.974;2022-07-23T00:22:21;101471.00;;;17.80;92.00
57562;BME280;43397;51.530;5.974;2022-07-23T00:24:47;101476.50;;;17.77;91.80
57562;BME280;43397;51.530;5.974;2022-07-23T00:27:13;101475.09;;;17.62;92.96
57562;BME280;43397;51.530;5.974;2022-07-23T00:29:39;101480.13;;;17.42;94.83
57562;BME280;43397;51.530;5.974;2022-07-23T00:32:05;101471.53;;;17.62;93.55
57562;BME280;43397;51.530;5.974;2022-07-23T00:34:30;101460.78;;;17.62;93.50
57562;BME280;43397;51.530;5.974;2022-07-23T00:36:56;101466.19;;;17.60;93.80
57562;BME280;43397;51.530;5.974;2022-07-23T00:39:24;101467.00;;;17.64;93.19
57562;BME280;43397;51.530;5.974;2022-07-23T00:41:50;101470.22;;;17.44;94.85
57562;BME280;43397;51.530;5.974;2022-07-23T00:44:19;101472.25;;;17.36;95.57
57562;BME280;43397;51.530;5.974;2022-07-23T00:46:46;101474.31;;;17.24;96.80
57562;BME280;43397;51.530;5.974;2022-07-23T00:49:13;101474.56;;;17.15;96.65
57562;BME280;43397;51.530;5.974;2022-07-23T00:51:38;101469.56;;;17.00;99.10
57562;BME280;43397;51.530;5.974;2022-07-23T00:54:04;101471.16;;;17.09;98.32
57562;BME280;43397;51.530;5.974;2022-07-23T00:56:32;101463.94;;;17.11;98.23
57562;BME280;43397;51.530;5.974;2022-07-23T00:59:00;101462.38;;;17.02;98.87
57562;BME280;43397;51.530;5.974;2022-07-23T01:01:25;101464.06;;;16.67;100.00
57562;BME280;43397;51.530;5.974;2022-07-23T01:03:51;101472.50;;;16.50;100.00
57562;BME280;43397;51.530;5.974;2022-07-23T01:06:17;101473.94;;;16.28;100.00
57562;BME280;43397;51.530;5.974;2022-07-23T01:08:43;101472.19;;;16.25;100.00
57562;BME280;43397;51.530;5.974;2022-07-23T01:11:09;101464.41;;;16.53;100.00
57562;BME280;43397;51.530;5.974;2022-07-23T01:13:40;101474.75;;;16.70;100.00
57562;BME280;43397;51.530;5.974;2022-07-23T01:16:06;101468.56;;;16.66;100.00
57562;BME280;43397;51.530;5.974;2022-07-23T01:18:32;101462.44;;;16.61;100.00
57562;BME280;43397;51.530;5.974;2022-07-23T01:20:58;101465.88;;;16.68;100.00
57562;BME280;43397;51.530;5.974;2022-07-23T01:23:26;101468.38;;;16.74;100.00
57562;BME280;43397;51.530;5.974;2022-07-23T01:25:52;101467.81;;;16.99;100.00
57562;BME280;43397;51.530;5.974;2022-07-23T01:28:18;101467.97;;;16.93;100.00
57562;BME280;43397;51.530;5.974;2022-07-23T01:30:44;101463.47;;;16.93;100.00
57562;BME280;43397;51.530;5.974;2022-07-23T01:33:10;101461.75;;;16.91;100.00
57562;BME280;43397;51.530;5.974;2022-07-23T01:35:36;101462.56;;;16.94;100.00
57562;BME280;43397;51.530;5.974;2022-07-23T01:38:02;101459.31;;;16.78;100.00
57562;BME280;43397;51.530;5.974;2022-07-23T01:40:29;101459.34;;;16.80;100.00
57562;BME280;43397;51.530;5.974;2022-07-23T01:42:55;101457.50;;;16.82;100.00
57562;BME280;43397;51.530;5.974;2022-07-23T01:45:21;101449.34;;;16.85;100.00
57562;BME280;43397;51.530;5.974;2022-07-23T01:47:47;101456.25;;;16.58;100.00
57562;BME280;43397;51.530;5.974;2022-07-23T01:50:13;101443.59;;;16.63;100.00
57562;BME280;43397;51.530;5.974;2022-07-23T01:52:38;101452.31;;;16.73;100.00
57562;BME280;43397;51.530;5.974;2022-07-23T01:55:06;101448.69;;;16.75;100.00
57562;BME280;43397;51.530;5.974;2022-07-23T01:57:33;101446.38;;;16.58;100.00
57562;BME280;43397;51.530;5.974;2022-07-23T01:59:59;101455.41;;;16.56;100.00
57562;BME280;43397;51.530;5.974;2022-07-23T02:02:25;101458.19;;;16.51;100.00
57562;BME280;43397;51.530;5.974;2022-07-23T02:04:51;101448.78;;;16.33;100.00
57562;BME280;43397;51.530;5.974;2022-07-23T02:07:16;101454.03;;;16.38;100.00
57562;BME280;43397;51.530;5.974;2022-07-23T02:09:42;101462.25;;;16.29;100.00
57562;BME280;43397;51.530;5.974;2022-07-23T02:12:09;101452.50;;;16.26;100.00
57562;BME280;43397;51.530;5.974;2022-07-23T02:14:36;101447.09;;;16.28;100.00
57562;BME280;43397;51.530;5.974;2022-07-23T02:17:02;101441.72;;;16.29;100.00
57562;BME280;43397;51.530;5.974;2022-07-23T02:19:28;101437.75;;;16.45;100.00
57562;BME280;43397;51.530;5.974;2022-07-23T02:21:53;101443.16;;;16.44;100.00
57562;BME280;43397;51.530;5.974;2022-07-23T02:24:19;101440.69;;;16.35;100.00
57562;BME280;43397;51.530;5.974;2022-07-23T02:26:45;101441.72;;;16.29;100.00
57562;BME280;43397;51.530;5.974;2022-07-23T02:29:11;101440.72;;;16.33;100.00
57562;BME280;43397;51.530;5.974;2022-07-23T02:31:39;101447.22;;;16.23;100.00
57562;BME280;43397;51.530;5.974;2022-07-23T02:34:05;101444.19;;;16.38;100.00
57562;BME280;43397;51.530;5.974;2022-07-23T02:36:31;101438.69;;;16.43;100.00
57562;BME280;43397;51.530;5.974;2022-07-23T02:38:56;101440.50;;;16.42;100.00
57562;BME280;43397;51.530;5.974;2022-07-23T02:41:23;101443.34;;;16.35;100.00
57562;BME280;43397;51.530;5.974;2022-07-23T02:43:48;101440.97;;;16.22;100.00
57562;BME280;43397;51.530;5.974;2022-07-23T02:46:14;101439.94;;;16.28;100.00
57562;BME280;43397;51.530;5.974;2022-07-23T02:48:42;101445.84;;;16.44;100.00
57562;BME280;43397;51.530;5.974;2022-07-23T02:51:07;101442.72;;;16.23;100.00
57562;BME280;43397;51.530;5.974;2022-07-23T02:53:33;101438.31;;;16.21;100.00
57562;BME280;43397;51.530;5.974;2022-07-23T02:55:59;101441.91;;;16.20;100.00
57562;BME280;43397;51.530;5.974;2022-07-23T02:58:24;101440.59;;;15.97;100.00
57562;BME280;43397;51.530;5.974;2022-07-23T03:00:50;101445.00;;;16.00;100.00
57562;BME280;43397;51.530;5.974;2022-07-23T03:03:16;101444.44;;;15.86;100.00
57562;BME280;43397;51.530;5.974;2022-07-23T03:05:43;101444.13;;;15.99;100.00
57562;BME280;43397;51.530;5.974;2022-07-23T03:08:09;101444.13;;;15.99;100.00
57562;BME280;43397;51.530;5.974;2022-07-23T03:10:35;101444.13;;;15.99;100.00
57562;BME280;43397;51.530;5.974;2022-07-23T03:13:01;101448.28;;;15.72;100.00
57562;BME280;43397;51.530;5.974;2022-07-23T03:15:26;101450.50;;;15.94;100.00
57562;BME280;43397;51.530;5.974;2022-07-23T03:17:52;101447.81;;;15.94;100.00
57562;BME280;43397;51.530;5.974;2022-07-23T03:20:18;101448.53;;;16.02;100.00
57562;BME280;43397;51.530;5.974;2022-07-23T03:22:45;101463.53;;;16.12;100.00
57562;BME280;43397;51.530;5.974;2022-07-23T03:25:11;101459.44;;;15.94;100.00
57562;BME280;43397;51.530;5.974;2022-07-23T03:27:37;101462.22;;;15.90;100.00
57562;BME280;43397;51.530;5.974;2022-07-23T03:30:03;101464.53;;;16.07;100.00
57562;BME280;43397;51.530;5.974;2022-07-23T03:32:29;101452.31;;;15.93;100.00
57562;BME280;43397;51.530;5.974;2022-07-23T03:34:55;101464.94;;;15.88;100.00
57562;BME280;43397;51.530;5.974;2022-07-23T03:37:21;101457.22;;;15.71;100.00
57562;BME280;43397;51.530;5.974;2022-07-23T03:39:48;101455.91;;;15.92;100.00
57562;BME280;43397;51.530;5.974;2022-07-23T03:42:14;101462.88;;;15.54;100.00
57562;BME280;43397;51.530;5.974;2022-07-23T03:44:40;101470.25;;;15.41;100.00
57562;BME280;43397;51.530;5.974;2022-07-23T03:47:06;101465.72;;;15.45;100.00
57562;BME280;43397;51.530;5.974;2022-07-23T03:49:32;101472.25;;;15.80;100.00
57562;BME280;43397;51.530;5.974;2022-07-23T03:51:58;101466.38;;;15.58;100.00
57562;BME280;43397;51.530;5.974;2022-07-23T03:54:24;101469.75;;;15.68;100.00
57562;BME280;43397;51.530;5.974;2022-07-23T03:56:51;101470.00;;;15.55;100.00
57562;BME280;43397;51.530;5.974;2022-07-23T03:59:18;101464.19;;;15.33;100.00
57562;BME280;43397;51.530;5.974;2022-07-23T04:01:44;101474.63;;;15.47;100.00
57562;BME280;43397;51.530;5.974;2022-07-23T04:04:10;101463.81;;;15.53;100.00
57562;BME280;43397;51.530;5.974;2022-07-23T04:06:36;101466.31;;;15.61;100.00
57562;BME280;43397;51.530;5.974;2022-07-23T04:09:02;101463.91;;;15.47;100.00
57562;BME280;43397;51.530;5.974;2022-07-23T04:11:28;101465.50;;;15.57;100.00
57562;BME280;43397;51.530;5.974;2022-07-23T04:13:55;101466.88;;;15.30;100.00
57562;BME280;43397;51.530;5.974;2022-07-23T04:16:21;101471.09;;;15.45;100.00
57562;BME280;43397;51.530;5.974;2022-07-23T04:18:46;101468.34;;;14.98;100.00
57562;BME280;43397;51.530;5.974;2022-07-23T04:21:12;101469.13;;;15.05;100.00
57562;BME280;43397;51.530;5.974;2022-07-23T04:23:38;101473.44;;;15.14;100.00
57562;BME280;43397;51.530;5.974;2022-07-23T04:26:04;101466.31;;;15.13;100.00
57562;BME280;43397;51.530;5.974;2022-07-23T04:28:30;101468.22;;;15.06;100.00
57562;BME280;43397;51.530;5.974;2022-07-23T04:30:57;101468.69;;;15.31;100.00
57562;BME280;43397;51.530;5.974;2022-07-23T04:33:24;101478.34;;;15.40;100.00
57562;BME280;43397;51.530;5.974;2022-07-23T04:35:50;101479.81;;;15.56;100.00
57562;BME280;43397;51.530;5.974;2022-07-23T04:38:16;101485.13;;;15.58;100.00
57562;BME280;43397;51.530;5.974;2022-07-23T04:40:42;101487.63;;;15.67;100.00
57562;BME280;43397;51.530;5.974;2022-07-23T04:43:07;101486.69;;;15.70;100.00
57562;BME280;43397;51.530;5.974;2022-07-23T04:45:33;101488.50;;;15.68;100.00
57562;BME280;43397;51.530;5.974;2022-07-23T04:48:00;101494.03;;;15.61;100.00
57562;BME280;43397;51.530;5.974;2022-07-23T04:50:26;101497.94;;;15.42;100.00
57562;BME280;43397;51.530;5.974;2022-07-23T04:52:52;101491.66;;;15.43;100.00
57562;BME280;43397;51.530;5.974;2022-07-23T04:55:18;101499.38;;;15.61;100.00
57562;BME280;43397;51.530;5.974;2022-07-23T04:57:44;101494.25;;;15.48;100.00
57562;BME280;43397;51.530;5.974;2022-07-23T05:00:11;101495.38;;;15.36;100.00
57562;BME280;43397;51.530;5.974;2022-07-23T05:02:38;101500.16;;;15.68;100.00
57562;BME280;43397;51.530;5.974;2022-07-23T05:05:06;101494.41;;;15.90;100.00
57562;BME280;43397;51.530;5.974;2022-07-23T05:07:32;101497.47;;;16.13;100.00
57562;BME280;43397;51.530;5.974;2022-07-23T05:09:58;101505.47;;;16.16;100.00
57562;BME280;43397;51.530;5.974;2022-07-23T05:12:24;101504.94;;;15.97;100.00
57562;BME280;43397;51.530;5.974;2022-07-23T05:14:49;101508.50;;;15.99;100.00
57562;BME280;43397;51.530;5.974;2022-07-23T05:17:15;101509.88;;;15.74;100.00
57562;BME280;43397;51.530;5.974;2022-07-23T05:19:41;101509.03;;;15.72;100.00
57562;BME280;43397;51.530;5.974;2022-07-23T05:22:08;101514.22;;;15.81;100.00
57562;BME280;43397;51.530;5.974;2022-07-23T05:24:34;101517.75;;;15.83;100.00
57562;BME280;43397;51.530;5.974;2022-07-23T05:27:00;101516.75;;;15.89;100.00
57562;BME280;43397;51.530;5.974;2022-07-23T05:29:26;101515.09;;;15.83;100.00
57562;BME280;43397;51.530;5.974;2022-07-23T05:31:52;101528.50;;;15.83;100.00
57562;BME280;43397;51.530;5.974;2022-07-23T05:34:17;101535.81;;;15.73;100.00
57562;BME280;43397;51.530;5.974;2022-07-23T05:36:43;101528.31;;;15.91;100.00
57562;BME280;43397;51.530;5.974;2022-07-23T05:39:11;101535.50;;;15.90;100.00
57562;BME280;43397;51.530;5.974;2022-07-23T05:41:37;101544.28;;;15.97;100.00
57562;BME280;43397;51.530;5.974;2022-07-23T05:44:03;101538.06;;;15.95;100.00
57562;BME280;43397;51.530;5.974;2022-07-23T05:46:29;101552.00;;;16.56;100.00
57562;BME280;43397;51.530;5.974;2022-07-23T05:48:55;101541.28;;;16.96;100.00
57562;BME280;43397;51.530;5.974;2022-07-23T05:51:21;101545.50;;;17.06;100.00
57562;BME280;43397;51.530;5.974;2022-07-23T05:53:47;101544.97;;;17.28;100.00
57562;BME280;43397;51.530;5.974;2022-07-23T05:56:15;101546.75;;;17.29;100.00
57562;BME280;43397;51.530;5.974;2022-07-23T05:58:41;101547.28;;;17.43;99.68
57562;BME280;43397;51.530;5.974;2022-07-23T06:01:08;101551.31;;;17.25;99.40
57562;BME280;43397;51.530;5.974;2022-07-23T06:03:35;101548.66;;;17.24;99.42
57562;BME280;43397;51.530;5.974;2022-07-23T06:06:01;101547.66;;;16.92;100.00
57562;BME280;43397;51.530;5.974;2022-07-23T06:08:26;101553.38;;;16.75;100.00
57562;BME280;43397;51.530;5.974;2022-07-23T06:10:52;101547.97;;;16.77;100.00
57562;BME280;43397;51.530;5.974;2022-07-23T06:13:19;101551.59;;;16.74;100.00
57562;BME280;43397;51.530;5.974;2022-07-23T06:15:45;101548.03;;;16.74;100.00
57562;BME280;43397;51.530;5.974;2022-07-23T06:18:11;101547.16;;;16.73;100.00
57562;BME280;43397;51.530;5.974;2022-07-23T06:20:37;101551.66;;;16.73;100.00
57562;BME280;43397;51.530;5.974;2022-07-23T06:23:03;101543.31;;;16.85;100.00
57562;BME280;43397;51.530;5.974;2022-07-23T06:25:29;101542.22;;;16.94;100.00
57562;BME280;43397;51.530;5.974;2022-07-23T06:27:55;101550.38;;;16.91;100.00
57562;BME280;43397;51.530;5.974;2022-07-23T06:30:22;101546.59;;;16.98;100.00
57562;BME280;43397;51.530;5.974;2022-07-23T06:32:48;101551.19;;;16.94;100.00
57562;BME280;43397;51.530;5.974;2022-07-23T06:35:14;101563.75;;;16.92;100.00
57562;BME280;43397;51.530;5.974;2022-07-23T06:37:40;101563.75;;;16.92;100.00
57562;BME280;43397;51.530;5.974;2022-07-23T06:40:07;101566.00;;;17.11;100.00
57562;BME280;43397;51.530;5.974;2022-07-23T06:42:33;101572.19;;;17.14;100.00
57562;BME280;43397;51.530;5.974;2022-07-23T06:44:59;101557.09;;;17.09;100.00
57562;BME280;43397;51.530;5.974;2022-07-23T06:47:26;101558.16;;;17.03;100.00
57562;BME280;43397;51.530;5.974;2022-07-23T06:49:52;101560.50;;;17.17;99.80
57562;BME280;43397;51.530;5.974;2022-07-23T06:52:17;101561.13;;;17.26;97.18
57562;BME280;43397;51.530;5.974;2022-07-23T06:54:43;101566.28;;;17.36;98.00
57562;BME280;43397;51.530;5.974;2022-07-23T06:57:09;101564.50;;;17.36;98.75
57562;BME280;43397;51.530;5.974;2022-07-23T06:59:35;101569.44;;;17.53;96.21
57562;BME280;43397;51.530;5.974;2022-07-23T07:02:00;101564.72;;;17.61;92.91
57562;BME280;43397;51.530;5.974;2022-07-23T07:04:28;101566.47;;;17.64;91.39
57562;BME280;43397;51.530;5.974;2022-07-23T07:06:54;101575.66;;;17.55;91.40
57562;BME280;43397;51.530;5.974;2022-07-23T07:09:19;101574.53;;;17.64;92.00
57562;BME280;43397;51.530;5.974;2022-07-23T07:11:45;101579.69;;;17.72;92.53
57562;BME280;43397;51.530;5.974;2022-07-23T07:14:11;101570.38;;;17.86;91.16
57562;BME280;43397;51.530;5.974;2022-07-23T07:16:40;101571.25;;;17.87;88.67
57562;BME280;43397;51.530;5.974;2022-07-23T07:19:06;101569.44;;;17.87;88.90
57562;BME280;43397;51.530;5.974;2022-07-23T07:21:33;101570.94;;;17.99;87.97
57562;BME280;43397;51.530;5.974;2022-07-23T07:23:59;101574.16;;;18.12;85.59
57562;BME280;43397;51.530;5.974;2022-07-23T07:26:25;101581.25;;;18.15;86.05
57562;BME280;43397;51.530;5.974;2022-07-23T07:28:51;101578.59;;;18.13;85.35
57562;BME280;43397;51.530;5.974;2022-07-23T07:31:17;101586.53;;;18.18;85.32
57562;BME280;43397;51.530;5.974;2022-07-23T07:33:44;101578.34;;;18.22;84.14
57562;BME280;43397;51.530;5.974;2022-07-23T07:36:09;101580.78;;;18.32;86.15
57562;BME280;43397;51.530;5.974;2022-07-23T07:38:37;101575.97;;;18.43;86.33
57562;BME280;43397;51.530;5.974;2022-07-23T07:41:02;101569.56;;;18.47;85.40
57562;BME280;43397;51.530;5.974;2022-07-23T07:43:28;101582.78;;;18.55;82.89
57562;BME280;43397;51.530;5.974;2022-07-23T07:45:54;101583.47;;;18.61;82.02
57562;BME280;43397;51.530;5.974;2022-07-23T07:48:20;101575.91;;;18.74;80.88
57562;BME280;43397;51.530;5.974;2022-07-23T07:50:46;101578.03;;;18.64;82.24
57562;BME280;43397;51.530;5.974;2022-07-23T07:53:12;101583.13;;;18.74;83.51
57562;BME280;43397;51.530;5.974;2022-07-23T07:55:39;101578.31;;;18.85;81.40
57562;BME280;43397;51.530;5.974;2022-07-23T07:58:05;101586.03;;;18.97;81.48
57562;BME280;43397;51.530;5.974;2022-07-23T08:00:30;101578.47;;;19.08;80.73
57562;BME280;43397;51.530;5.974;2022-07-23T08:02:56;101590.03;;;19.12;81.60
57562;BME280;43397;51.530;5.974;2022-07-23T08:05:23;101587.38;;;19.39;78.96
57562;BME280;43397;51.530;5.974;2022-07-23T08:07:49;101596.44;;;19.36;76.70
57562;BME280;43397;51.530;5.974;2022-07-23T08:10:15;101603.59;;;19.37;76.64
57562;BME280;43397;51.530;5.974;2022-07-23T08:12:44;101594.94;;;19.54;76.30
57562;BME280;43397;51.530;5.974;2022-07-23T08:15:11;101595.81;;;19.28;77.55
57562;BME280;43397;51.530;5.974;2022-07-23T08:17:39;101590.63;;;19.48;77.66
57562;BME280;43397;51.530;5.974;2022-07-23T08:20:06;101598.16;;;19.65;76.97
57562;BME280;43397;51.530;5.974;2022-07-23T08:22:45;101601.59;;;19.70;75.81
57562;BME280;43397;51.530;5.974;2022-07-23T08:25:12;101590.59;;;19.77;75.81
57562;BME280;43397;51.530;5.974;2022-07-23T08:27:38;101596.81;;;19.79;79.71
57562;BME280;43397;51.530;5.974;2022-07-23T08:30:07;101591.38;;;19.80;75.80
57562;BME280;43397;51.530;5.974;2022-07-23T08:32:33;101602.56;;;19.94;74.97
57562;BME280;43397;51.530;5.974;2022-07-23T08:34:59;101607.56;;;19.80;75.26
57562;BME280;43397;51.530;5.974;2022-07-23T08:37:25;101609.78;;;20.19;78.22
57562;BME280;43397;51.530;5.974;2022-07-23T08:39:51;101610.88;;;20.39;77.11
57562;BME280;43397;51.530;5.974;2022-07-23T08:42:17;101602.25;;;20.52;73.86
57562;BME280;43397;51.530;5.974;2022-07-23T08:44:45;101608.88;;;20.69;71.72
57562;BME280;43397;51.530;5.974;2022-07-23T08:47:12;101602.94;;;20.83;75.60
57562;BME280;43397;51.530;5.974;2022-07-23T08:49:40;101617.16;;;21.10;72.24
57562;BME280;43397;51.530;5.974;2022-07-23T08:52:07;101606.72;;;21.23;68.93
57562;BME280;43397;51.530;5.974;2022-07-23T08:54:34;101609.75;;;21.15;67.93
57562;BME280;43397;51.530;5.974;2022-07-23T08:57:00;101611.78;;;21.32;76.50
57562;BME280;43397;51.530;5.974;2022-07-23T08:59:28;101606.66;;;21.48;76.55
57562;BME280;43397;51.530;5.974;2022-07-23T09:01:54;101606.06;;;21.62;69.98
57562;BME280;43397;51.530;5.974;2022-07-23T09:04:22;101601.97;;;21.94;73.51
57562;BME280;43397;51.530;5.974;2022-07-23T09:06:47;101606.75;;;21.87;66.76
57562;BME280;43397;51.530;5.974;2022-07-23T09:09:17;101594.44;;;22.01;67.96
57562;BME280;43397;51.530;5.974;2022-07-23T09:11:45;101598.09;;;21.79;71.38
57562;BME280;43397;51.530;5.974;2022-07-23T09:14:11;101597.16;;;22.01;72.21
57562;BME280;43397;51.530;5.974;2022-07-23T09:16:37;101605.78;;;22.31;72.69
57562;BME280;43397;51.530;5.974;2022-07-23T09:19:05;101604.41;;;22.60;67.83
57562;BME280;43397;51.530;5.974;2022-07-23T09:21:33;101604.75;;;22.33;63.62
57562;BME280;43397;51.530;5.974;2022-07-23T09:24:00;101609.13;;;22.36;64.81
57562;BME280;43397;51.530;5.974;2022-07-23T09:26:34;101609.44;;;22.30;60.73
57562;BME280;43397;51.530;5.974;2022-07-23T09:29:07;101607.31;;;22.36;66.85
57562;BME280;43397;51.530;5.974;2022-07-23T09:34:18;101604.50;;;22.96;67.39
57562;BME280;43397;51.530;5.974;2022-07-23T09:36:45;101607.50;;;22.90;66.66
57562;BME280;43397;51.530;5.974;2022-07-23T09:39:13;101607.22;;;22.77;65.32
57562;BME280;43397;51.530;5.974;2022-07-23T09:41:41;101607.94;;;22.62;61.88
57562;BME280;43397;51.530;5.974;2022-07-23T09:44:10;101603.25;;;22.66;66.84
57562;BME280;43397;51.530;5.974;2022-07-23T09:46:37;101607.38;;;22.93;65.54
57562;BME280;43397;51.530;5.974;2022-07-23T09:49:14;101605.56;;;23.13;64.81
57562;BME280;43397;51.530;5.974;2022-07-23T09:51:46;101603.63;;;23.51;68.17
57562;BME280;43397;51.530;5.974;2022-07-23T09:54:24;101603.91;;;23.64;64.03
57562;BME280;43397;51.530;5.974;2022-07-23T09:56:51;101610.00;;;23.69;60.64
57562;BME280;43397;51.530;5.974;2022-07-23T09:59:17;101608.94;;;23.72;60.75
57562;BME280;43397;51.530;5.974;2022-07-23T10:01:46;101611.28;;;23.79;60.10
57562;BME280;43397;51.530;5.974;2022-07-23T10:04:12;101610.97;;;23.86;60.84
57562;BME280;43397;51.530;5.974;2022-07-23T10:06:39;101613.44;;;24.08;59.67
57562;BME280;43397;51.530;5.974;2022-07-23T10:09:08;101610.56;;;24.11;55.57
57562;BME280;43397;51.530;5.974;2022-07-23T10:11:34;101613.75;;;23.84;53.99
57562;BME280;43397;51.530;5.974;2022-07-23T10:14:01;101609.81;;;23.72;53.70
57562;BME280;43397;51.530;5.974;2022-07-23T10:16:27;101610.41;;;23.96;55.53
57562;BME280;43397;51.530;5.974;2022-07-23T10:18:54;101612.38;;;24.28;57.76
57562;BME280;43397;51.530;5.974;2022-07-23T10:21:25;101610.53;;;24.46;57.40
57562;BME280;43397;51.530;5.974;2022-07-23T10:24:04;101606.53;;;24.35;56.31
57562;BME280;43397;51.530;5.974;2022-07-23T10:26:41;101604.09;;;24.64;57.23
57562;BME280;43397;51.530;5.974;2022-07-23T10:29:21;101611.50;;;24.94;57.68
57562;BME280;43397;51.530;5.974;2022-07-23T10:31:58;101605.94;;;24.79;56.29
57562;BME280;43397;51.530;5.974;2022-07-23T10:34:32;101614.56;;;24.72;56.58
57562;BME280;43397;51.530;5.974;2022-07-23T10:37:07;101611.38;;;24.79;59.15
57562;BME280;43397;51.530;5.974;2022-07-23T10:39:34;101604.41;;;24.91;56.40
57562;BME280;43397;51.530;5.974;2022-07-23T10:42:12;101605.78;;;24.82;50.99
57562;BME280;43397;51.530;5.974;2022-07-23T10:44:40;101607.09;;;24.75;54.70
57562;BME280;43397;51.530;5.974;2022-07-23T10:47:06;101603.56;;;24.40;56.25
57562;BME280;43397;51.530;5.974;2022-07-23T10:49:33;101604.47;;;24.74;55.26
57562;BME280;43397;51.530;5.974;2022-07-23T10:52:19;101609.13;;;24.72;55.17
57562;BME280;43397;51.530;5.974;2022-07-23T10:54:46;101608.53;;;24.98;53.49
57562;BME280;43397;51.530;5.974;2022-07-23T10:57:14;101604.06;;;25.29;56.57
57562;BME280;43397;51.530;5.974;2022-07-23T11:00:08;101605.13;;;25.27;55.99
57562;BME280;43397;51.530;5.974;2022-07-23T11:02:36;101610.88;;;25.52;50.13
57562;BME280;43397;51.530;5.974;2022-07-23T11:05:04;101609.94;;;25.21;53.34
57562;BME280;43397;51.530;5.974;2022-07-23T11:07:31;101607.50;;;25.63;52.08
57562;BME280;43397;51.530;5.974;2022-07-23T11:09:57;101607.91;;;25.87;53.57
57562;BME280;43397;51.530;5.974;2022-07-23T11:12:34;101606.59;;;26.09;53.29
57562;BME280;43397;51.530;5.974;2022-07-23T11:15:01;101606.34;;;26.27;53.69
57562;BME280;43397;51.530;5.974;2022-07-23T11:17:29;101605.94;;;26.19;51.69
57562;BME280;43397;51.530;5.974;2022-07-23T11:20:19;101613.34;;;26.32;49.37
57562;BME280;43397;51.530;5.974;2022-07-23T11:22:48;101605.63;;;26.10;48.98
57562;BME280;43397;51.530;5.974;2022-07-23T11:25:29;101602.75;;;26.41;48.46
57562;BME280;43397;51.530;5.974;2022-07-23T11:28:08;101607.13;;;26.44;48.16
57562;BME280;43397;51.530;5.974;2022-07-23T11:30:40;101613.06;;;26.51;50.16
57562;BME280;43397;51.530;5.974;2022-07-23T11:33:17;101621.28;;;26.65;51.30
57562;BME280;43397;51.530;5.974;2022-07-23T11:35:45;101608.50;;;26.80;51.54
57562;BME280;43397;51.530;5.974;2022-07-23T11:38:13;101612.50;;;26.88;45.26
57562;BME280;43397;51.530;5.974;2022-07-23T11:40:39;101612.50;;;26.88;45.18
57562;BME280;43397;51.530;5.974;2022-07-23T11:43:08;101609.19;;;26.83;47.15
57562;BME280;43397;51.530;5.974;2022-07-23T11:45:35;101606.63;;;26.95;46.07
57562;BME280;43397;51.530;5.974;2022-07-23T11:48:01;101602.19;;;26.79;46.76
57562;BME280;43397;51.530;5.974;2022-07-23T11:50:28;101600.72;;;26.74;47.49
57562;BME280;43397;51.530;5.974;2022-07-23T11:52:54;101601.63;;;26.60;46.92
57562;BME280;43397;51.530;5.974;2022-07-23T11:55:20;101607.41;;;26.97;48.18
57562;BME280;43397;51.530;5.974;2022-07-23T11:57:47;101602.91;;;26.96;43.37
57562;BME280;43397;51.530;5.974;2022-07-23T12:00:16;101604.59;;;26.98;46.36
57562;BME280;43397;51.530;5.974;2022-07-23T12:02:44;101594.81;;;27.08;45.96
57562;BME280;43397;51.530;5.974;2022-07-23T12:05:12;101607.31;;;26.98;46.30
57562;BME280;43397;51.530;5.974;2022-07-23T12:07:40;101595.34;;;27.01;46.23
57562;BME280;43397;51.530;5.974;2022-07-23T12:10:10;101597.91;;;27.31;46.44
57562;BME280;43397;51.530;5.974;2022-07-23T12:12:37;101604.34;;;27.57;43.25
57562;BME280;43397;51.530;5.974;2022-07-23T12:15:05;101602.72;;;27.67;42.28
57562;BME280;43397;51.530;5.974;2022-07-23T12:17:35;101600.88;;;27.68;44.26
57562;BME280;43397;51.530;5.974;2022-07-23T12:20:02;101597.50;;;27.37;44.08
57562;BME280;43397;51.530;5.974;2022-07-23T12:22:33;101604.25;;;27.17;43.46
57562;BME280;43397;51.530;5.974;2022-07-23T12:25:02;101599.97;;;27.27;46.65
57562;BME280;43397;51.530;5.974;2022-07-23T12:27:28;101598.94;;;27.43;44.25
57562;BME280;43397;51.530;5.974;2022-07-23T12:29:54;101596.28;;;27.41;43.92
57562;BME280;43397;51.530;5.974;2022-07-23T12:32:23;101598.91;;;27.70;43.02
57562;BME280;43397;51.530;5.974;2022-07-23T12:35:02;101593.31;;;27.99;40.21
57562;BME280;43397;51.530;5.974;2022-07-23T12:37:30;101605.44;;;27.95;41.89
57562;BME280;43397;51.530;5.974;2022-07-23T12:39:57;101604.59;;;28.07;46.37
57562;BME280;43397;51.530;5.974;2022-07-23T12:42:23;101592.13;;;28.16;40.63
57562;BME280;43397;51.530;5.974;2022-07-23T12:45:13;101590.78;;;28.08;42.30
57562;BME280;43397;51.530;5.974;2022-07-23T12:47:59;101591.34;;;27.88;43.18